createdAt,value
2023-09-27T00:00:34.175Z,94020.31
2023-09-27T00:03:01.331Z,94017.88
2023-09-27T00:05:29.075Z,94019.91
2023-09-27T00:08:00.137Z,94021.69
2023-09-27T00:10:28.289Z,94029.31
2023-09-27T00:12:55.355Z,94021.09
2023-09-27T00:15:22.577Z,94026.09
2023-09-27T00:17:51.097Z,94020.31
2023-09-27T00:20:19.599Z,94020.16
2023-09-27T00:22:46.868Z,94011.28
2023-09-27T00:25:15.430Z,94013.63
2023-09-27T00:27:43.277Z,94009.44
2023-09-27T00:30:15.411Z,94008.03
2023-09-27T00:32:43.135Z,94001.78
2023-09-27T00:35:16.115Z,94010.38
2023-09-27T00:37:43.208Z,94002.03
2023-09-27T00:40:11.992Z,94001.84
2023-09-27T00:42:39.642Z,93998.44
2023-09-27T00:45:08.485Z,93995.41
2023-09-27T00:47:37.052Z,93998.63
2023-09-27T00:50:05.185Z,93998.59
2023-09-27T00:52:34.915Z,93999.56
2023-09-27T00:55:02.160Z,93996.34
2023-09-27T00:57:29.536Z,94006.94
2023-09-27T00:59:57.256Z,93998.94
2023-09-27T01:02:24.748Z,93997.31
2023-09-27T01:04:51.999Z,93999.72
2023-09-27T01:07:19.332Z,93997.91
2023-09-27T01:09:48.240Z,93997.50
2023-09-27T01:12:15.409Z,94000.75
2023-09-27T01:14:42.920Z,94004.38
2023-09-27T01:17:11.146Z,94000.16
2023-09-27T01:19:39.659Z,94003.34
2023-09-27T01:22:06.781Z,94004.50
2023-09-27T01:24:37.801Z,94010.50
2023-09-27T01:27:09.214Z,93999.91
2023-09-27T01:29:36.428Z,93996.28
2023-09-27T01:32:03.909Z,94004.72
2023-09-27T01:34:31.236Z,93995.31
2023-09-27T01:36:59.109Z,94001.88
2023-09-27T01:39:26.202Z,94002.88
2023-09-27T01:41:54.760Z,94003.47
2023-09-27T01:44:22.067Z,93999.06
2023-09-27T01:46:49.276Z,93999.47
2023-09-27T01:49:16.570Z,94003.69
2023-09-27T01:51:43.683Z,93993.06
2023-09-27T01:54:12.016Z,93996.63
2023-09-27T01:56:39.878Z,93997.22
2023-09-27T01:59:08.387Z,93988.03
2023-09-27T02:01:35.528Z,93990.69
2023-09-27T02:04:02.821Z,93985.84
2023-09-27T02:06:29.910Z,93993.59
2023-09-27T02:08:57.087Z,93999.19
2023-09-27T02:11:26.887Z,93996.22
2023-09-27T02:13:54.489Z,93992.03
2023-09-27T02:16:23.292Z,93999.25
2023-09-27T02:18:50.913Z,93997.56
2023-09-27T02:21:19.390Z,93994.16
2023-09-27T02:23:47.098Z,93999.16
2023-09-27T02:26:14.285Z,93994.16
2023-09-27T02:28:44.430Z,94000.22
2023-09-27T02:31:11.941Z,93995.03
2023-09-27T02:33:40.512Z,93996.03
2023-09-27T02:36:08.260Z,93997.78
2023-09-27T02:38:37.244Z,93996.19
2023-09-27T02:41:05.257Z,94003.06
2023-09-27T02:43:32.707Z,93997.28
2023-09-27T02:45:59.775Z,94004.47
2023-09-27T02:48:27.055Z,94005.69
2023-09-27T02:50:56.388Z,94008.28
2023-09-27T02:53:23.566Z,94013.44
2023-09-27T02:55:50.736Z,94006.81
2023-09-27T02:58:17.827Z,94017.13
2023-09-27T03:00:45.004Z,94019.25
2023-09-27T03:03:15.049Z,94016.63
2023-09-27T03:05:42.476Z,94013.56
2023-09-27T03:08:11.435Z,94017.13
2023-09-27T03:10:40.024Z,94019.00
2023-09-27T03:13:09.383Z,94025.31
2023-09-27T03:15:36.698Z,94018.69
2023-09-27T03:18:04.722Z,94022.47
2023-09-27T03:20:33.019Z,94027.44
2023-09-27T03:23:01.175Z,94023.19
2023-09-27T03:25:29.882Z,94023.19
2023-09-27T03:27:56.988Z,94024.59
2023-09-27T03:30:24.610Z,94018.72
2023-09-27T03:32:51.845Z,94022.69
2023-09-27T03:35:20.103Z,94020.44
2023-09-27T03:37:48.284Z,94013.41
2023-09-27T03:40:16.219Z,94019.69
2023-09-27T03:42:45.703Z,94030.06
2023-09-27T03:45:13.577Z,94024.53
2023-09-27T03:47:40.836Z,94026.06
2023-09-27T03:50:08.859Z,94029.25
2023-09-27T03:52:35.945Z,94032.22
2023-09-27T03:55:03.195Z,94041.19
2023-09-27T03:57:30.275Z,94037.59
2023-09-27T03:59:58.761Z,94035.47
2023-09-27T04:02:26.602Z,94042.44
2023-09-27T04:04:53.796Z,94035.97
2023-09-27T04:07:21.349Z,94033.88
2023-09-27T04:09:48.619Z,94044.34
2023-09-27T04:12:15.672Z,94045.94
2023-09-27T04:14:42.849Z,94039.78
2023-09-27T04:17:11.562Z,94041.50
2023-09-27T04:19:38.715Z,94043.53
2023-09-27T04:22:05.835Z,94045.78
2023-09-27T04:24:33.121Z,94044.00
2023-09-27T04:27:00.444Z,94044.59
2023-09-27T04:29:27.660Z,94046.84
2023-09-27T04:31:54.990Z,94049.34
2023-09-27T04:34:24.367Z,94052.13
2023-09-27T04:36:54.753Z,94056.97
2023-09-27T04:39:21.818Z,94051.22
2023-09-27T04:41:48.881Z,94064.59
2023-09-27T04:44:16.146Z,94065.41
2023-09-27T04:46:43.372Z,94064.31
2023-09-27T04:49:10.908Z,94058.88
2023-09-27T04:51:39.667Z,94065.59
2023-09-27T04:54:06.848Z,94062.75
2023-09-27T04:56:34.055Z,94067.50
2023-09-27T04:59:06.301Z,94066.31
2023-09-27T05:01:33.510Z,94063.38
2023-09-27T05:04:00.636Z,94068.81
2023-09-27T05:06:27.773Z,94063.06
2023-09-27T05:08:56.351Z,94066.25
2023-09-27T05:11:23.497Z,94071.91
2023-09-27T05:13:50.821Z,94073.56
2023-09-27T05:16:17.942Z,94070.41
2023-09-27T05:18:45.316Z,94075.03
2023-09-27T05:21:12.400Z,94073.06
2023-09-27T05:23:39.443Z,94071.06
2023-09-27T05:26:07.957Z,94071.72
2023-09-27T05:28:35.002Z,94075.19
2023-09-27T05:31:02.157Z,94072.78
2023-09-27T05:33:29.464Z,94077.88
2023-09-27T05:35:56.582Z,94080.66
2023-09-27T05:38:23.843Z,94083.63
2023-09-27T05:40:51.157Z,94077.22
2023-09-27T05:43:19.809Z,94085.41
2023-09-27T05:45:46.870Z,94084.28
2023-09-27T05:48:17.396Z,94076.13
2023-09-27T05:50:48.102Z,94080.78
2023-09-27T05:53:18.129Z,94088.25
2023-09-27T05:55:45.414Z,94081.53
2023-09-27T05:58:12.558Z,94086.00
2023-09-27T06:00:47.669Z,94085.31
2023-09-27T06:03:15.059Z,94085.31
2023-09-27T06:05:42.921Z,94086.94
2023-09-27T06:08:10.168Z,94087.63
2023-09-27T06:10:37.326Z,94080.81
2023-09-27T06:13:04.649Z,94092.22
2023-09-27T06:15:34.276Z,94092.50
2023-09-27T06:18:04.429Z,94088.03
2023-09-27T06:20:32.160Z,94098.50
2023-09-27T06:23:04.597Z,94108.31
2023-09-27T06:25:31.954Z,94103.94
2023-09-27T06:27:59.021Z,94105.16
2023-09-27T06:30:26.110Z,94106.19
2023-09-27T06:32:53.523Z,94110.81
2023-09-27T06:35:22.260Z,94108.19
2023-09-27T06:37:51.006Z,94105.03
2023-09-27T06:40:18.785Z,94104.81
2023-09-27T06:42:46.310Z,94112.63
2023-09-27T06:45:14.450Z,94103.44
2023-09-27T06:47:42.422Z,94108.47
2023-09-27T06:50:10.963Z,94105.25
2023-09-27T06:52:41.602Z,94111.25
2023-09-27T06:55:12.211Z,94111.25
2023-09-27T06:57:39.702Z,94115.22
2023-09-27T07:00:26.138Z,94117.59
2023-09-27T07:02:53.910Z,94116.91
2023-09-27T07:05:25.040Z,94118.06
2023-09-27T07:07:54.409Z,94119.75
2023-09-27T07:10:21.891Z,94114.41
2023-09-27T07:12:48.985Z,94119.56
2023-09-27T07:15:16.201Z,94111.31
2023-09-27T07:17:45.465Z,94121.38
2023-09-27T07:20:29.243Z,94115.31
2023-09-27T07:22:58.198Z,94122.38
2023-09-27T07:25:25.570Z,94117.31
2023-09-27T07:27:53.242Z,94121.22
2023-09-27T07:30:25.088Z,94116.69
2023-09-27T07:32:53.141Z,94113.00
2023-09-27T07:35:20.544Z,94115.22
2023-09-27T07:37:48.709Z,94125.34
2023-09-27T07:40:18.504Z,94115.75
2023-09-27T07:42:46.283Z,94120.63
2023-09-27T07:45:17.106Z,94119.56
2023-09-27T07:47:44.294Z,94116.94
2023-09-27T07:50:11.503Z,94114.53
2023-09-27T07:52:38.589Z,94112.38
2023-09-27T07:55:09.528Z,94111.06
2023-09-27T07:57:38.025Z,94111.59
2023-09-27T08:00:11.671Z,94121.81
2023-09-27T08:02:41.458Z,94120.47
2023-09-27T08:05:13.580Z,94117.69
2023-09-27T08:07:41.442Z,94114.81
2023-09-27T08:10:21.414Z,94106.94
2023-09-27T08:12:50.607Z,94106.13
2023-09-27T08:15:19.285Z,94110.38
2023-09-27T08:17:48.782Z,94115.75
2023-09-27T08:20:16.565Z,94110.44
2023-09-27T08:22:43.639Z,94108.13
2023-09-27T08:25:18.193Z,94099.91
2023-09-27T08:27:45.837Z,94103.22
2023-09-27T08:30:14.834Z,94104.34
2023-09-27T08:32:43.283Z,94103.66
2023-09-27T08:35:11.728Z,94091.28
2023-09-27T08:37:38.963Z,94096.94
2023-09-27T08:40:08.784Z,94096.50
2023-09-27T08:42:35.995Z,94094.03
2023-09-27T08:45:04.345Z,94099.75
2023-09-27T08:47:33.377Z,94085.84
2023-09-27T08:50:00.540Z,94084.91
2023-09-27T08:52:30.763Z,94088.69
2023-09-27T08:55:01.065Z,94083.38
2023-09-27T08:57:29.343Z,94091.03
2023-09-27T09:00:02.381Z,94076.09
2023-09-27T09:02:30.162Z,94079.50
2023-09-27T09:04:59.377Z,94086.88
2023-09-27T09:07:27.006Z,94091.75
2023-09-27T09:09:54.018Z,94081.28
2023-09-27T09:12:21.140Z,94074.00
2023-09-27T09:14:55.741Z,94083.66
2023-09-27T09:17:35.552Z,94083.22
2023-09-27T09:20:38.049Z,94082.41
2023-09-27T09:23:13.944Z,94077.81
2023-09-27T09:25:47.549Z,94076.97
2023-09-27T09:28:15.000Z,94074.09
2023-09-27T09:30:42.488Z,94073.75
2023-09-27T09:33:10.161Z,94077.56
2023-09-27T09:35:38.791Z,94066.66
2023-09-27T09:38:06.080Z,94070.34
2023-09-27T09:40:33.294Z,94065.13
2023-09-27T09:43:01.280Z,94066.16
2023-09-27T09:45:30.352Z,94060.09
2023-09-27T09:47:58.820Z,94067.25
2023-09-27T09:50:28.334Z,94066.91
2023-09-27T09:53:00.873Z,94063.44
2023-09-27T09:55:48.689Z,94054.13
2023-09-27T09:58:22.958Z,94059.97
2023-09-27T10:00:51.208Z,94054.88
2023-09-27T10:03:22.140Z,94050.19
2023-09-27T10:05:51.472Z,94056.56
2023-09-27T10:08:24.481Z,94053.91
2023-09-27T10:10:51.597Z,94045.97
2023-09-27T10:13:19.637Z,94044.44
2023-09-27T10:15:46.921Z,94044.53
2023-09-27T10:18:34.916Z,94051.19
2023-09-27T10:21:06.332Z,94037.78
2023-09-27T10:23:59.367Z,94039.97
2023-09-27T10:26:38.203Z,94037.34
2023-09-27T10:29:15.458Z,94040.34
2023-09-27T10:32:22.545Z,94033.06
2023-09-27T10:34:50.709Z,94024.66
2023-09-27T10:37:19.511Z,94033.09
2023-09-27T10:40:20.852Z,94016.81
2023-09-27T10:42:48.289Z,94016.97
2023-09-27T10:45:17.595Z,94011.31
2023-09-27T10:47:45.101Z,94019.44
2023-09-27T10:50:12.349Z,94010.78
2023-09-27T10:52:40.789Z,94014.97
2023-09-27T10:55:12.644Z,94003.72
2023-09-27T10:57:42.720Z,94000.09
2023-09-27T11:00:12.687Z,93995.94
2023-09-27T11:02:40.295Z,94005.41
2023-09-27T11:05:09.168Z,93998.63
2023-09-27T11:07:44.093Z,93997.72
2023-09-27T11:10:11.355Z,93999.78
2023-09-27T11:12:39.025Z,93989.66
2023-09-27T11:15:09.045Z,93990.03
2023-09-27T11:17:36.343Z,93990.13
2023-09-27T11:20:13.012Z,93987.66
2023-09-27T11:22:40.235Z,93998.00
2023-09-27T11:25:28.923Z,93991.78
2023-09-27T11:27:56.492Z,93988.78
2023-09-27T11:30:29.486Z,93986.13
2023-09-27T11:32:56.972Z,93988.31
2023-09-27T11:35:24.654Z,93987.97
2023-09-27T11:38:08.821Z,93991.78
2023-09-27T11:40:36.380Z,93993.88
2023-09-27T11:43:04.232Z,93984.97
2023-09-27T11:45:42.850Z,93986.09
2023-09-27T11:48:11.046Z,93990.91
2023-09-27T11:50:38.927Z,93991.72
2023-09-27T11:53:06.425Z,93987.09
2023-09-27T11:55:33.568Z,93985.38
2023-09-27T11:58:01.072Z,93985.59
2023-09-27T12:00:29.825Z,93989.41
2023-09-27T12:02:59.218Z,93993.84
2023-09-27T12:05:27.622Z,93986.91
2023-09-27T12:07:56.417Z,93992.63
2023-09-27T12:10:23.875Z,93993.75
2023-09-27T12:12:51.018Z,93985.88
2023-09-27T12:15:18.323Z,93978.66
2023-09-27T12:17:45.547Z,93981.78
2023-09-27T12:20:31.423Z,93979.63
2023-09-27T12:23:04.265Z,93976.78
2023-09-27T12:25:32.876Z,93973.97
2023-09-27T12:28:00.028Z,93976.28
2023-09-27T12:30:29.008Z,93974.69
2023-09-27T12:32:56.925Z,93979.16
2023-09-27T12:35:25.834Z,93975.06
2023-09-27T12:37:53.001Z,93981.91
2023-09-27T12:40:20.159Z,93978.44
2023-09-27T12:42:47.367Z,93984.00
2023-09-27T12:45:14.830Z,93981.28
2023-09-27T12:47:42.917Z,93974.91
2023-09-27T12:50:10.479Z,93972.38
2023-09-27T12:52:39.168Z,93968.06
2023-09-27T12:55:06.665Z,93966.44
2023-09-27T12:57:33.988Z,93973.66
2023-09-27T13:00:01.394Z,93978.91
2023-09-27T13:02:28.788Z,93973.66
2023-09-27T13:04:55.942Z,93978.53
2023-09-27T13:07:23.346Z,93976.38
2023-09-27T13:09:51.890Z,93977.28
2023-09-27T13:12:19.045Z,93977.78
2023-09-27T13:17:13.507Z,93973.84
2023-09-27T13:19:40.662Z,93976.72
2023-09-27T13:22:07.970Z,93973.38
2023-09-27T13:24:35.178Z,93976.56
2023-09-27T13:27:03.689Z,93979.28
2023-09-27T13:29:31.589Z,93973.69
2023-09-27T13:31:58.826Z,93979.97
2023-09-27T13:34:25.833Z,93981.13
2023-09-27T13:36:53.169Z,93981.13
2023-09-27T13:39:23.354Z,93975.06
2023-09-27T13:41:50.461Z,93983.31
2023-09-27T13:44:19.082Z,93971.53
2023-09-27T13:46:46.433Z,93980.31
2023-09-27T13:49:13.723Z,93982.00
2023-09-27T13:51:41.603Z,93982.44
2023-09-27T13:54:09.386Z,93982.78
2023-09-27T13:56:38.110Z,93978.56
2023-09-27T13:59:05.781Z,93981.28
2023-09-27T14:01:34.465Z,93975.38
2023-09-27T14:04:02.601Z,93985.53
2023-09-27T14:06:29.945Z,93980.50
2023-09-27T14:08:57.889Z,93981.84
2023-09-27T14:11:25.194Z,93977.13
2023-09-27T14:13:53.555Z,93973.69
2023-09-27T14:16:21.589Z,93979.94
2023-09-27T14:18:50.268Z,93976.84
2023-09-27T14:21:17.426Z,93976.25
2023-09-27T14:23:45.570Z,93985.78
2023-09-27T14:26:13.100Z,93985.75
2023-09-27T14:28:40.440Z,93979.84
2023-09-27T14:31:07.748Z,93985.22
2023-09-27T14:33:36.064Z,93984.56
2023-09-27T14:36:05.918Z,93986.59
2023-09-27T14:38:35.295Z,93989.00
2023-09-27T14:41:07.861Z,93989.19
2023-09-27T14:43:36.557Z,93993.06
2023-09-27T14:46:03.652Z,93994.50
2023-09-27T14:48:30.717Z,93991.34
2023-09-27T14:50:57.906Z,93997.13
2023-09-27T14:53:26.368Z,93998.38
2023-09-27T14:55:53.676Z,94003.16
2023-09-27T14:58:21.845Z,94003.63
2023-09-27T15:00:49.213Z,94003.91
2023-09-27T15:03:16.470Z,94006.31
2023-09-27T15:05:44.837Z,94007.44
2023-09-27T15:08:12.053Z,94006.97
2023-09-27T15:10:41.744Z,94006.97
2023-09-27T15:13:09.371Z,94008.56
2023-09-27T15:15:37.107Z,94007.03
2023-09-27T15:18:05.166Z,94010.53
2023-09-27T15:20:33.489Z,94006.72
2023-09-27T15:23:00.738Z,94004.88
2023-09-27T15:25:27.887Z,94003.22
2023-09-27T15:27:57.128Z,94007.03
2023-09-27T15:30:24.365Z,94007.66
2023-09-27T15:32:51.598Z,94004.06
2023-09-27T15:35:18.811Z,94006.06
2023-09-27T15:37:52.699Z,94009.19
2023-09-27T15:40:20.453Z,94008.72
2023-09-27T15:42:50.876Z,93999.88
2023-09-27T15:45:21.515Z,94002.06
2023-09-27T15:47:49.710Z,94002.72
2023-09-27T15:50:16.847Z,93999.81
2023-09-27T15:52:43.929Z,93994.78
2023-09-27T15:55:11.197Z,94002.56
2023-09-27T15:57:41.247Z,94000.75
2023-09-27T16:00:09.834Z,94010.19
2023-09-27T16:02:41.196Z,94013.94
2023-09-27T16:05:14.320Z,94004.31
2023-09-27T16:07:42.087Z,94006.59
2023-09-27T16:10:10.200Z,94010.00
2023-09-27T16:12:38.075Z,94011.44
2023-09-27T16:15:07.214Z,94007.03
2023-09-27T16:17:36.437Z,94010.63
2023-09-27T16:20:06.370Z,94012.66
2023-09-27T16:22:33.530Z,94019.28
2023-09-27T16:25:04.798Z,94017.09
2023-09-27T16:27:32.600Z,94021.38
2023-09-27T16:29:59.787Z,94021.56
2023-09-27T16:32:27.452Z,94023.75
2023-09-27T16:34:54.898Z,94022.94
2023-09-27T16:37:23.390Z,94027.41
2023-09-27T16:39:50.793Z,94030.41
2023-09-27T16:42:17.960Z,94026.63
2023-09-27T16:44:45.147Z,94035.91
2023-09-27T16:47:12.196Z,94041.78
2023-09-27T16:49:39.429Z,94035.75
2023-09-27T16:52:06.676Z,94039.81
2023-09-27T16:54:35.146Z,94035.25
2023-09-27T16:57:03.770Z,94049.53
2023-09-27T16:59:30.940Z,94042.09
2023-09-27T17:01:58.458Z,94043.00
2023-09-27T17:04:25.738Z,94042.41
2023-09-27T17:06:52.836Z,94047.22
2023-09-27T17:09:20.437Z,94053.59
2023-09-27T17:11:48.907Z,94057.22
2023-09-27T17:14:16.125Z,94050.44
2023-09-27T17:16:43.254Z,94049.03
2023-09-27T17:19:10.706Z,94049.03
2023-09-27T17:21:39.577Z,94052.28
2023-09-27T17:24:07.154Z,94051.47
2023-09-27T17:26:34.324Z,94055.31
2023-09-27T17:29:02.863Z,94051.47
2023-09-27T17:31:30.073Z,94049.72
2023-09-27T17:33:57.776Z,94050.13
2023-09-27T17:36:25.084Z,94044.09
2023-09-27T17:38:52.167Z,94050.34
2023-09-27T17:41:19.323Z,94053.22
2023-09-27T17:43:46.954Z,94057.84
2023-09-27T17:46:22.156Z,94052.00
2023-09-27T17:48:49.532Z,94057.63
2023-09-27T17:51:18.017Z,94050.19
2023-09-27T17:53:45.263Z,94048.22
2023-09-27T17:56:12.429Z,94053.44
2023-09-27T17:58:39.529Z,94057.06
2023-09-27T18:01:06.756Z,94055.28
2023-09-27T18:03:35.403Z,94057.91
2023-09-27T18:06:06.535Z,94065.31
2023-09-27T18:08:34.082Z,94062.31
2023-09-27T18:11:07.760Z,94068.91
2023-09-27T18:13:34.836Z,94066.34
2023-09-27T18:16:01.919Z,94067.34
2023-09-27T18:18:29.069Z,94069.56
2023-09-27T18:20:57.648Z,94069.56
2023-09-27T18:23:24.767Z,94074.59
2023-09-27T18:25:51.945Z,94070.97
2023-09-27T18:28:19.088Z,94070.19
2023-09-27T18:30:46.726Z,94067.34
2023-09-27T18:33:13.868Z,94063.56
2023-09-27T18:35:41.751Z,94067.19
2023-09-27T18:38:10.007Z,94066.78
2023-09-27T18:40:38.580Z,94066.19
2023-09-27T18:43:05.866Z,94065.19
2023-09-27T18:45:33.213Z,94071.41
2023-09-27T18:48:00.334Z,94066.81
2023-09-27T18:50:27.992Z,94061.97
2023-09-27T18:52:55.042Z,94063.97
2023-09-27T18:55:23.494Z,94062.38
2023-09-27T18:57:50.457Z,94065.97
2023-09-27T19:00:17.834Z,94067.34
2023-09-27T19:02:47.825Z,94065.97
2023-09-27T19:05:15.312Z,94066.34
2023-09-27T19:07:42.233Z,94066.97
2023-09-27T19:10:12.406Z,94060.94
2023-09-27T19:12:40.932Z,94058.53
2023-09-27T19:15:08.794Z,94059.72
2023-09-27T19:17:35.597Z,94065.94
2023-09-27T19:20:06.557Z,94063.75
2023-09-27T19:22:33.732Z,94061.38
2023-09-27T19:25:00.798Z,94065.56
2023-09-27T19:27:27.807Z,94055.75
2023-09-27T19:29:56.434Z,94060.75
2023-09-27T19:32:24.775Z,94057.75
2023-09-27T19:34:51.905Z,94061.38
2023-09-27T19:37:18.909Z,94055.97
2023-09-27T19:39:46.630Z,94052.53
2023-09-27T19:42:15.108Z,94056.38
2023-09-27T19:44:42.457Z,94064.00
2023-09-27T19:47:11.169Z,94064.38
2023-09-27T19:49:41.367Z,94058.16
2023-09-27T19:52:08.535Z,94057.38
2023-09-27T19:54:36.694Z,94060.16
2023-09-27T19:57:03.919Z,94057.97
2023-09-27T19:59:31.954Z,94061.00
2023-09-27T20:02:00.458Z,94056.59
2023-09-27T20:04:28.851Z,94059.97
2023-09-27T20:06:55.897Z,94054.59
2023-09-27T20:09:23.255Z,94052.38
2023-09-27T20:11:50.605Z,94044.34
2023-09-27T20:14:18.299Z,94057.97
2023-09-27T20:16:45.521Z,94050.34
2023-09-27T20:19:12.563Z,94049.19
2023-09-27T20:21:40.915Z,94049.97
2023-09-27T20:24:08.334Z,94043.56
2023-09-27T20:26:36.093Z,94045.16
2023-09-27T20:29:03.144Z,94041.34
2023-09-27T20:31:30.441Z,94038.56
2023-09-27T20:33:57.474Z,94033.53
2023-09-27T20:36:24.621Z,94040.13
2023-09-27T20:38:53.187Z,94037.53
2023-09-27T20:41:21.282Z,94037.09
2023-09-27T20:43:48.503Z,94035.53
2023-09-27T20:46:16.070Z,94048.56
2023-09-27T20:48:43.224Z,94046.94
2023-09-27T20:51:10.905Z,94044.34
2023-09-27T20:53:38.710Z,94049.38
2023-09-27T20:56:10.366Z,94047.56
2023-09-27T20:58:37.958Z,94045.75
2023-09-27T21:01:08.375Z,94045.75
2023-09-27T21:03:36.707Z,94049.75
2023-09-27T21:06:05.167Z,94054.97
2023-09-27T21:08:33.055Z,94046.16
2023-09-27T21:11:00.920Z,94047.34
2023-09-27T21:13:29.294Z,94036.16
2023-09-27T21:15:56.428Z,94035.16
2023-09-27T21:18:23.599Z,94034.94
2023-09-27T21:20:50.754Z,94040.56
2023-09-27T21:23:17.669Z,94043.16
2023-09-27T21:25:44.644Z,94033.31
2023-09-27T21:28:11.584Z,94036.16
2023-09-27T21:30:40.001Z,94039.16
2023-09-27T21:33:07.062Z,94041.56
2023-09-27T21:35:34.108Z,94044.16
2023-09-27T21:38:01.452Z,94044.97
2023-09-27T21:40:28.889Z,94041.16
2023-09-27T21:42:55.887Z,94047.78
2023-09-27T21:45:23.000Z,94041.16
2023-09-27T21:47:51.329Z,94034.94
2023-09-27T21:50:18.425Z,94036.13
2023-09-27T21:52:46.396Z,94031.16
2023-09-27T21:55:13.617Z,94035.16
2023-09-27T21:57:40.868Z,94026.88
2023-09-27T22:00:20.938Z,94023.50
2023-09-27T22:02:48.200Z,94025.31
2023-09-27T22:05:16.696Z,94019.28
2023-09-27T22:07:45.527Z,94022.88
2023-09-27T22:10:12.545Z,94023.31
2023-09-27T22:12:40.213Z,94022.94
2023-09-27T22:15:10.793Z,94010.69
2023-09-27T22:17:39.134Z,94009.69
2023-09-27T22:20:13.980Z,94012.47
2023-09-27T22:22:42.503Z,94007.66
2023-09-27T22:25:13.730Z,94004.03
2023-09-27T22:27:41.068Z,93998.06
2023-09-27T22:30:13.927Z,93999.81
2023-09-27T22:32:41.979Z,94003.44
2023-09-27T22:35:28.465Z,93997.78
2023-09-27T22:37:57.348Z,94000.78
2023-09-27T22:40:24.903Z,93983.28
2023-09-27T22:42:57.147Z,93985.63
2023-09-27T22:45:31.713Z,93986.00
2023-09-27T22:48:02.722Z,93981.72
2023-09-27T22:50:30.142Z,93983.88
2023-09-27T22:52:58.933Z,93984.28
2023-09-27T22:55:29.107Z,93981.66
2023-09-27T22:57:56.476Z,93988.63
2023-09-27T23:00:26.475Z,93989.59
2023-09-27T23:02:56.250Z,93991.78
2023-09-27T23:05:40.573Z,93987.53
2023-09-27T23:08:13.465Z,93978.53
2023-09-27T23:10:41.276Z,93970.56
2023-09-27T23:13:35.945Z,93974.78
2023-09-27T23:16:22.753Z,93965.94
2023-09-27T23:18:50.725Z,93972.66
2023-09-27T23:21:24.458Z,93963.78
2023-09-27T23:24:11.742Z,93959.16
2023-09-27T23:27:15.436Z,93959.25
2023-09-27T23:29:42.612Z,93952.25
2023-09-27T23:32:31.028Z,93950.50
2023-09-27T23:35:00.410Z,93948.53
2023-09-27T23:37:34.497Z,93950.78
2023-09-27T23:40:10.939Z,93951.25
2023-09-27T23:42:44.112Z,93958.22
2023-09-27T23:45:11.812Z,93956.06
2023-09-27T23:47:45.245Z,93949.75
2023-09-27T23:50:16.233Z,93948.94
2023-09-27T23:52:45.620Z,93950.81
2023-09-27T23:55:14.958Z,93951.66
2023-09-27T23:57:42.352Z,93957.69
